<?xml version="1.0" encoding="utf-8"?>
<gpx xmlns:xsi="http://www.w3.org/2001/XMLSchema-instance" xmlns:xsd="http://www.w3.org/2001/XMLSchema" version="1.1" creator="Shapelink.com" xmlns="http://www.topografix.com/GPX/1/1" xmlns:gpxtpx="http://www.garmin.com/xmlschemas/TrackPointExtension/v1">
  <metadata>
    <name>Cycling 8.92 km, 2020-07-04</name>
    <desc></desc>
    <author><name>Marian Moron</name></author> 
    <time>2020-07-04T14:03:14Z</time>
  </metadata>
  <trk>
    <name>Cycling 8.92 km, 2020-07-04</name>
    <trkseg>
      <trkpt lat="51.228590381099" lon="4.44921645556">
        <ele>1.4</ele>
        <time>2020-07-04T14:03:14Z</time>
      </trkpt>
      <trkpt lat="51.228924232176" lon="4.4486431336">
        <ele>5.6</ele>
        <time>2020-07-04T14:03:45Z</time>
      </trkpt>
      <trkpt lat="51.228571689462" lon="4.447975263808">
        <ele>0</ele>
        <time>2020-07-04T14:04:13Z</time>
      </trkpt>
      <trkpt lat="51.228328195267" lon="4.447495986766">
        <ele>0</ele>
        <time>2020-07-04T14:04:30Z</time>
      </trkpt>
      <trkpt lat="51.227923768592" lon="4.447935449783">
        <ele>0.4</ele>
        <time>2020-07-04T14:04:53Z</time>
      </trkpt>
      <trkpt lat="51.22773785805" lon="4.447748701051">
        <ele>7</ele>
        <time>2020-07-04T14:12:57Z</time>
      </trkpt>
      <trkpt lat="51.227372574848" lon="4.448379774302">
        <ele>6.8</ele>
        <time>2020-07-04T14:13:21Z</time>
      </trkpt>
      <trkpt lat="51.227081052366" lon="4.448982852007">
        <ele>6.6</ele>
        <time>2020-07-04T14:13:47Z</time>
      </trkpt>
      <trkpt lat="51.22661216888" lon="4.449409574536">
        <ele>0.6</ele>
        <time>2020-07-04T14:14:16Z</time>
      </trkpt>
      <trkpt lat="51.226232720267" lon="4.45003201443">
        <ele>0</ele>
        <time>2020-07-04T14:14:34Z</time>
      </trkpt>
      <trkpt lat="51.2258477396" lon="4.450644563682">
        <ele>1.6</ele>
        <time>2020-07-04T14:14:53Z</time>
      </trkpt>
      <trkpt lat="51.225511793048" lon="4.451301285547">
        <ele>3.2</ele>
        <time>2020-07-04T14:15:17Z</time>
      </trkpt>
      <trkpt lat="51.225253965804" lon="4.451772515965">
        <ele>2.2</ele>
        <time>2020-07-04T14:15:32Z</time>
      </trkpt>
      <trkpt lat="51.224989349221" lon="4.45253652615">
        <ele>0.6</ele>
        <time>2020-07-04T14:15:54Z</time>
      </trkpt>
      <trkpt lat="51.224905278764" lon="4.45341159651">
        <ele>0</ele>
        <time>2020-07-04T14:16:11Z</time>
      </trkpt>
      <trkpt lat="51.224941320934" lon="4.454309884733">
        <ele>0</ele>
        <time>2020-07-04T14:16:36Z</time>
      </trkpt>
      <trkpt lat="51.224838810297" lon="4.454472493593">
        <ele>0</ele>
        <time>2020-07-04T14:16:41Z</time>
      </trkpt>
      <trkpt lat="51.224549299471" lon="4.454525383382">
        <ele>0</ele>
        <time>2020-07-04T14:16:55Z</time>
      </trkpt>
      <trkpt lat="51.224560698855" lon="4.454565951778">
        <ele>0</ele>
        <time>2020-07-04T14:16:59Z</time>
      </trkpt>
      <trkpt lat="51.224753398736" lon="4.454526640667">
        <ele>1.8</ele>
        <time>2020-07-04T14:17:16Z</time>
      </trkpt>
      <trkpt lat="51.224773682934" lon="4.454625211811">
        <ele>1.4</ele>
        <time>2020-07-04T14:17:53Z</time>
      </trkpt>
      <trkpt lat="51.224771922735" lon="4.455478656869">
        <ele>0.2</ele>
        <time>2020-07-04T14:18:14Z</time>
      </trkpt>
      <trkpt lat="51.22458961641" lon="4.456327240425">
        <ele>0</ele>
        <time>2020-07-04T14:18:34Z</time>
      </trkpt>
      <trkpt lat="51.224320892696" lon="4.45708119233">
        <ele>0</ele>
        <time>2020-07-04T14:18:51Z</time>
      </trkpt>
      <trkpt lat="51.22385620016" lon="4.457572706946">
        <ele>2</ele>
        <time>2020-07-04T14:19:12Z</time>
      </trkpt>
      <trkpt lat="51.22339854842" lon="4.458043602088">
        <ele>0.6</ele>
        <time>2020-07-04T14:19:33Z</time>
      </trkpt>
      <trkpt lat="51.222969478959" lon="4.458571577969">
        <ele>9.8</ele>
        <time>2020-07-04T14:19:59Z</time>
      </trkpt>
      <trkpt lat="51.222557089479" lon="4.458851281972">
        <ele>10.2</ele>
        <time>2020-07-04T14:20:15Z</time>
      </trkpt>
      <trkpt lat="51.222500595473" lon="4.458724380006">
        <ele>9</ele>
        <time>2020-07-04T14:20:22Z</time>
      </trkpt>
      <trkpt lat="51.222536553824" lon="4.458893694386">
        <ele>6</ele>
        <time>2020-07-04T14:23:02Z</time>
      </trkpt>
      <trkpt lat="51.222022827173" lon="4.459157891874">
        <ele>3.8</ele>
        <time>2020-07-04T14:23:26Z</time>
      </trkpt>
      <trkpt lat="51.221901205804" lon="4.45915152163">
        <ele>1.8</ele>
        <time>2020-07-04T14:23:33Z</time>
      </trkpt>
      <trkpt lat="51.221546902891" lon="4.459241459417">
        <ele>0</ele>
        <time>2020-07-04T14:23:52Z</time>
      </trkpt>
      <trkpt lat="51.221006773255" lon="4.459305161857">
        <ele>0</ele>
        <time>2020-07-04T14:24:17Z</time>
      </trkpt>
      <trkpt lat="51.220463709954" lon="4.459542704903">
        <ele>7.2</ele>
        <time>2020-07-04T14:24:35Z</time>
      </trkpt>
      <trkpt lat="51.220394810736" lon="4.459560893626">
        <ele>8</ele>
        <time>2020-07-04T14:24:40Z</time>
      </trkpt>
      <trkpt lat="51.220367904837" lon="4.459529210044">
        <ele>10</ele>
        <time>2020-07-04T14:26:17Z</time>
      </trkpt>
      <trkpt lat="51.220221556863" lon="4.459706738686">
        <ele>7.2</ele>
        <time>2020-07-04T14:26:27Z</time>
      </trkpt>
      <trkpt lat="51.219726018935" lon="4.460078308313">
        <ele>5.6</ele>
        <time>2020-07-04T14:26:48Z</time>
      </trkpt>
      <trkpt lat="51.219189912611" lon="4.460381565455">
        <ele>3.4</ele>
        <time>2020-07-04T14:27:04Z</time>
      </trkpt>
      <trkpt lat="51.218681718014" lon="4.460687253348">
        <ele>3.6</ele>
        <time>2020-07-04T14:27:23Z</time>
      </trkpt>
      <trkpt lat="51.218170841209" lon="4.461020350054">
        <ele>0</ele>
        <time>2020-07-04T14:27:44Z</time>
      </trkpt>
      <trkpt lat="51.217671279969" lon="4.461371132569">
        <ele>0</ele>
        <time>2020-07-04T14:28:03Z</time>
      </trkpt>
      <trkpt lat="51.217153613825" lon="4.46172308855">
        <ele>0</ele>
        <time>2020-07-04T14:28:23Z</time>
      </trkpt>
      <trkpt lat="51.21663854607" lon="4.462068003735">
        <ele>0</ele>
        <time>2020-07-04T14:28:39Z</time>
      </trkpt>
      <trkpt lat="51.216131357301" lon="4.462422725743">
        <ele>0</ele>
        <time>2020-07-04T14:28:55Z</time>
      </trkpt>
      <trkpt lat="51.215633807717" lon="4.462692539104">
        <ele>0</ele>
        <time>2020-07-04T14:29:11Z</time>
      </trkpt>
      <trkpt lat="51.21528570741" lon="4.462094825815">
        <ele>0</ele>
        <time>2020-07-04T14:29:29Z</time>
      </trkpt>
      <trkpt lat="51.215213287794" lon="4.461911094567">
        <ele>0</ele>
        <time>2020-07-04T14:29:34Z</time>
      </trkpt>
      <trkpt lat="51.215166349154" lon="4.461866335221">
        <ele>0</ele>
        <time>2020-07-04T14:29:36Z</time>
      </trkpt>
      <trkpt lat="51.215156542331" lon="4.461744713852">
        <ele>0</ele>
        <time>2020-07-04T14:29:39Z</time>
      </trkpt>
      <trkpt lat="51.215095857375" lon="4.461686627285">
        <ele>0</ele>
        <time>2020-07-04T14:29:42Z</time>
      </trkpt>
      <trkpt lat="51.214782709591" lon="4.46098212859">
        <ele>0</ele>
        <time>2020-07-04T14:30:03Z</time>
      </trkpt>
      <trkpt lat="51.214440979528" lon="4.460260530819">
        <ele>0</ele>
        <time>2020-07-04T14:30:26Z</time>
      </trkpt>
      <trkpt lat="51.21417426747" lon="4.459486210897">
        <ele>0</ele>
        <time>2020-07-04T14:30:43Z</time>
      </trkpt>
      <trkpt lat="51.214000007769" lon="4.458661348118">
        <ele>0</ele>
        <time>2020-07-04T14:30:59Z</time>
      </trkpt>
      <trkpt lat="51.214038061595" lon="4.457798347694">
        <ele>0</ele>
        <time>2020-07-04T14:31:16Z</time>
      </trkpt>
      <trkpt lat="51.213777635962" lon="4.457347820569">
        <ele>0</ele>
        <time>2020-07-04T14:31:29Z</time>
      </trkpt>
      <trkpt lat="51.213763135275" lon="4.457257379868">
        <ele>0</ele>
        <time>2020-07-04T14:31:32Z</time>
      </trkpt>
      <trkpt lat="51.213627432314" lon="4.456398989489">
        <ele>0</ele>
        <time>2020-07-04T14:31:55Z</time>
      </trkpt>
      <trkpt lat="51.213643106467" lon="4.455521823654">
        <ele>0</ele>
        <time>2020-07-04T14:32:13Z</time>
      </trkpt>
      <trkpt lat="51.213638999336" lon="4.454660667248">
        <ele>0</ele>
        <time>2020-07-04T14:32:34Z</time>
      </trkpt>
      <trkpt lat="51.213646040132" lon="4.453778975187">
        <ele>6.2</ele>
        <time>2020-07-04T14:32:57Z</time>
      </trkpt>
      <trkpt lat="51.213631790902" lon="4.452897115488">
        <ele>2.6</ele>
        <time>2020-07-04T14:33:21Z</time>
      </trkpt>
      <trkpt lat="51.213553503956" lon="4.452028080096">
        <ele>1.8</ele>
        <time>2020-07-04T14:33:45Z</time>
      </trkpt>
      <trkpt lat="51.213542942762" lon="4.451136832669">
        <ele>0</ele>
        <time>2020-07-04T14:34:06Z</time>
      </trkpt>
      <trkpt lat="51.213360971713" lon="4.45037064319">
        <ele>0</ele>
        <time>2020-07-04T14:34:28Z</time>
      </trkpt>
      <trkpt lat="51.213136504431" lon="4.449610991593">
        <ele>0</ele>
        <time>2020-07-04T14:34:52Z</time>
      </trkpt>
      <trkpt lat="51.212896195358" lon="4.448842455182">
        <ele>0</ele>
        <time>2020-07-04T14:35:12Z</time>
      </trkpt>
      <trkpt lat="51.212640798865" lon="4.448459318533">
        <ele>0</ele>
        <time>2020-07-04T14:35:26Z</time>
      </trkpt>
      <trkpt lat="51.212327231986" lon="4.449165828884">
        <ele>0</ele>
        <time>2020-07-04T14:35:46Z</time>
      </trkpt>
      <trkpt lat="51.211878129784" lon="4.449742755061">
        <ele>20.8</ele>
        <time>2020-07-04T14:36:08Z</time>
      </trkpt>
      <trkpt lat="51.211603454921" lon="4.450559655035">
        <ele>6</ele>
        <time>2020-07-04T14:36:26Z</time>
      </trkpt>
      <trkpt lat="51.211346130591" lon="4.451186872612">
        <ele>4.6</ele>
        <time>2020-07-04T14:36:43Z</time>
      </trkpt>
      <trkpt lat="51.211012530971" lon="4.451334645509">
        <ele>35.6</ele>
        <time>2020-07-04T14:53:01Z</time>
      </trkpt>
      <trkpt lat="51.211237501167" lon="4.45154494738">
        <ele>0</ele>
        <time>2020-07-04T14:53:09Z</time>
      </trkpt>
      <trkpt lat="51.210885796643" lon="4.452200244322">
        <ele>4.2</ele>
        <time>2020-07-04T14:53:35Z</time>
      </trkpt>
      <trkpt lat="51.210832320121" lon="4.452571478673">
        <ele>0</ele>
        <time>2020-07-04T14:53:44Z</time>
      </trkpt>
      <trkpt lat="51.210826620429" lon="4.452620848064">
        <ele>0</ele>
        <time>2020-07-04T14:54:48Z</time>
      </trkpt>
      <trkpt lat="51.210768533862" lon="4.452829976469">
        <ele>0</ele>
        <time>2020-07-04T14:54:56Z</time>
      </trkpt>
      <trkpt lat="51.211084112397" lon="4.453566326384">
        <ele>0</ele>
        <time>2020-07-04T14:55:16Z</time>
      </trkpt>
      <trkpt lat="51.211330037343" lon="4.454334024605">
        <ele>0</ele>
        <time>2020-07-04T14:55:30Z</time>
      </trkpt>
      <trkpt lat="51.211600772713" lon="4.455150254027">
        <ele>0</ele>
        <time>2020-07-04T14:55:44Z</time>
      </trkpt>
      <trkpt lat="51.211768494532" lon="4.455575886909">
        <ele>0</ele>
        <time>2020-07-04T14:55:51Z</time>
      </trkpt>
      <trkpt lat="51.21191031628" lon="4.455771855731">
        <ele>0</ele>
        <time>2020-07-04T14:55:55Z</time>
      </trkpt>
      <trkpt lat="51.212378110119" lon="4.456212492214">
        <ele>0</ele>
        <time>2020-07-04T14:56:08Z</time>
      </trkpt>
      <trkpt lat="51.212854788772" lon="4.456682297709">
        <ele>0</ele>
        <time>2020-07-04T14:56:23Z</time>
      </trkpt>
      <trkpt lat="51.213361306989" lon="4.457058812657">
        <ele>0</ele>
        <time>2020-07-04T14:56:39Z</time>
      </trkpt>
      <trkpt lat="51.213386536508" lon="4.457085550918">
        <ele>0</ele>
        <time>2020-07-04T14:56:40Z</time>
      </trkpt>
      <trkpt lat="51.213681579388" lon="4.457845453972">
        <ele>0</ele>
        <time>2020-07-04T14:56:56Z</time>
      </trkpt>
      <trkpt lat="51.213898251503" lon="4.458631592373">
        <ele>0</ele>
        <time>2020-07-04T14:57:13Z</time>
      </trkpt>
      <trkpt lat="51.21420025136" lon="4.459469782373">
        <ele>0</ele>
        <time>2020-07-04T14:57:31Z</time>
      </trkpt>
      <trkpt lat="51.21444165008" lon="4.460307134183">
        <ele>0</ele>
        <time>2020-07-04T14:57:45Z</time>
      </trkpt>
      <trkpt lat="51.214757312434" lon="4.461024457185">
        <ele>0</ele>
        <time>2020-07-04T14:58:00Z</time>
      </trkpt>
      <trkpt lat="51.215060569576" lon="4.461742618377">
        <ele>0</ele>
        <time>2020-07-04T14:58:14Z</time>
      </trkpt>
      <trkpt lat="51.215387547495" lon="4.462439405724">
        <ele>0</ele>
        <time>2020-07-04T14:58:28Z</time>
      </trkpt>
      <trkpt lat="51.215560885187" lon="4.462344438797">
        <ele>0</ele>
        <time>2020-07-04T14:58:33Z</time>
      </trkpt>
      <trkpt lat="51.215903537259" lon="4.461680089403">
        <ele>0</ele>
        <time>2020-07-04T14:58:46Z</time>
      </trkpt>
      <trkpt lat="51.216226910961" lon="4.460969471921">
        <ele>0</ele>
        <time>2020-07-04T14:59:00Z</time>
      </trkpt>
      <trkpt lat="51.216584818091" lon="4.460298752283">
        <ele>0</ele>
        <time>2020-07-04T14:59:15Z</time>
      </trkpt>
      <trkpt lat="51.216918669168" lon="4.459565755128">
        <ele>0</ele>
        <time>2020-07-04T14:59:31Z</time>
      </trkpt>
      <trkpt lat="51.217271966253" lon="4.458885899219">
        <ele>0</ele>
        <time>2020-07-04T14:59:45Z</time>
      </trkpt>
      <trkpt lat="51.217647307735" lon="4.458212581192">
        <ele>0</ele>
        <time>2020-07-04T15:00:01Z</time>
      </trkpt>
      <trkpt lat="51.217975291482" lon="4.457483188254">
        <ele>0</ele>
        <time>2020-07-04T15:00:19Z</time>
      </trkpt>
      <trkpt lat="51.218336048458" lon="4.456794196074">
        <ele>2.4</ele>
        <time>2020-07-04T15:00:40Z</time>
      </trkpt>
      <trkpt lat="51.218877603017" lon="4.456192208016">
        <ele>15.4</ele>
        <time>2020-07-04T15:01:00Z</time>
      </trkpt>
      <trkpt lat="51.219389150374" lon="4.455817537086">
        <ele>3.8</ele>
        <time>2020-07-04T15:01:18Z</time>
      </trkpt>
      <trkpt lat="51.219846550657" lon="4.455494917755">
        <ele>0</ele>
        <time>2020-07-04T15:01:36Z</time>
      </trkpt>
      <trkpt lat="51.219853507634" lon="4.455445716002">
        <ele>0</ele>
        <time>2020-07-04T15:01:39Z</time>
      </trkpt>
      <trkpt lat="51.219576318201" lon="4.454703331119">
        <ele>0</ele>
        <time>2020-07-04T15:01:59Z</time>
      </trkpt>
      <trkpt lat="51.21938110375" lon="4.453877294874">
        <ele>0</ele>
        <time>2020-07-04T15:02:15Z</time>
      </trkpt>
      <trkpt lat="51.219133586243" lon="4.453455350028">
        <ele>0</ele>
        <time>2020-07-04T15:02:28Z</time>
      </trkpt>
      <trkpt lat="51.218826473427" lon="4.452746744202">
        <ele>0</ele>
        <time>2020-07-04T15:02:55Z</time>
      </trkpt>
      <trkpt lat="51.218749276128" lon="4.452579776754">
        <ele>0</ele>
        <time>2020-07-04T15:03:02Z</time>
      </trkpt>
      <trkpt lat="51.218287014343" lon="4.452514900848">
        <ele>0</ele>
        <time>2020-07-04T15:03:19Z</time>
      </trkpt>
      <trkpt lat="51.218454484705" lon="4.451782238969">
        <ele>0</ele>
        <time>2020-07-04T15:03:36Z</time>
      </trkpt>
      <trkpt lat="51.218714994157" lon="4.451749633378">
        <ele>0</ele>
        <time>2020-07-04T15:03:42Z</time>
      </trkpt>
      <trkpt lat="51.21906845888" lon="4.452149869103">
        <ele>0</ele>
        <time>2020-07-04T15:04:02Z</time>
      </trkpt>
      <trkpt lat="51.219627615429" lon="4.452058003479">
        <ele>0</ele>
        <time>2020-07-04T15:04:25Z</time>
      </trkpt>
      <trkpt lat="51.220186185245" lon="4.45196990971">
        <ele>5.6</ele>
        <time>2020-07-04T15:04:42Z</time>
      </trkpt>
      <trkpt lat="51.220748778373" lon="4.451844432667">
        <ele>14.8</ele>
        <time>2020-07-04T15:05:01Z</time>
      </trkpt>
      <trkpt lat="51.221304582162" lon="4.451723565669">
        <ele>8.8</ele>
        <time>2020-07-04T15:05:17Z</time>
      </trkpt>
      <trkpt lat="51.221836581355" lon="4.451427433142">
        <ele>0.4</ele>
        <time>2020-07-04T15:05:31Z</time>
      </trkpt>
      <trkpt lat="51.222316026035" lon="4.451153428831">
        <ele>0</ele>
        <time>2020-07-04T15:05:41Z</time>
      </trkpt>
      <trkpt lat="51.222417279387" lon="4.451123505448">
        <ele>0</ele>
        <time>2020-07-04T15:05:43Z</time>
      </trkpt>
      <trkpt lat="51.222704694738" lon="4.451099281757">
        <ele>0</ele>
        <time>2020-07-04T15:05:49Z</time>
      </trkpt>
      <trkpt lat="51.222794297249" lon="4.451080422482">
        <ele>0</ele>
        <time>2020-07-04T15:05:51Z</time>
      </trkpt>
      <trkpt lat="51.222881720466" lon="4.451092995332">
        <ele>0</ele>
        <time>2020-07-04T15:05:53Z</time>
      </trkpt>
      <trkpt lat="51.223417156238" lon="4.451278738236">
        <ele>0</ele>
        <time>2020-07-04T15:06:06Z</time>
      </trkpt>
      <trkpt lat="51.223464513973" lon="4.451295502036">
        <ele>0</ele>
        <time>2020-07-04T15:06:07Z</time>
      </trkpt>
      <trkpt lat="51.223926440482" lon="4.451391642429">
        <ele>0</ele>
        <time>2020-07-04T15:06:17Z</time>
      </trkpt>
      <trkpt lat="51.224015623898" lon="4.451353253327">
        <ele>0</ele>
        <time>2020-07-04T15:06:19Z</time>
      </trkpt>
      <trkpt lat="51.224093659387" lon="4.451280749892">
        <ele>0</ele>
        <time>2020-07-04T15:06:21Z</time>
      </trkpt>
      <trkpt lat="51.224279569929" lon="4.45104706252">
        <ele>0</ele>
        <time>2020-07-04T15:06:26Z</time>
      </trkpt>
      <trkpt lat="51.224338075591" lon="4.450945138616">
        <ele>0</ele>
        <time>2020-07-04T15:06:28Z</time>
      </trkpt>
      <trkpt lat="51.224383924584" lon="4.450835671002">
        <ele>0</ele>
        <time>2020-07-04T15:06:30Z</time>
      </trkpt>
      <trkpt lat="51.224439748038" lon="4.450741206989">
        <ele>0</ele>
        <time>2020-07-04T15:06:32Z</time>
      </trkpt>
      <trkpt lat="51.224683074595" lon="4.450377600167">
        <ele>0</ele>
        <time>2020-07-04T15:06:41Z</time>
      </trkpt>
      <trkpt lat="51.224736383479" lon="4.450330661527">
        <ele>0</ele>
        <time>2020-07-04T15:06:43Z</time>
      </trkpt>
      <trkpt lat="51.224775862228" lon="4.450220942456">
        <ele>0</ele>
        <time>2020-07-04T15:06:46Z</time>
      </trkpt>
      <trkpt lat="51.224821543583" lon="4.450214153117">
        <ele>0</ele>
        <time>2020-07-04T15:06:48Z</time>
      </trkpt>
      <trkpt lat="51.224885078385" lon="4.450107786806">
        <ele>0</ele>
        <time>2020-07-04T15:06:51Z</time>
      </trkpt>
      <trkpt lat="51.225378856114" lon="4.44973613336">
        <ele>0</ele>
        <time>2020-07-04T15:07:11Z</time>
      </trkpt>
      <trkpt lat="51.225909262746" lon="4.449578302183">
        <ele>0</ele>
        <time>2020-07-04T15:07:25Z</time>
      </trkpt>
      <trkpt lat="51.226151667294" lon="4.449054433433">
        <ele>0</ele>
        <time>2020-07-04T15:07:43Z</time>
      </trkpt>
      <trkpt lat="51.226161055022" lon="4.448968938053">
        <ele>0</ele>
        <time>2020-07-04T15:09:09Z</time>
      </trkpt>
      <trkpt lat="51.226178657012" lon="4.448923759612">
        <ele>0</ele>
        <time>2020-07-04T15:09:11Z</time>
      </trkpt>
      <trkpt lat="51.226486859475" lon="4.448210543741">
        <ele>0</ele>
        <time>2020-07-04T15:09:29Z</time>
      </trkpt>
      <trkpt lat="51.226883574802" lon="4.447604113276">
        <ele>0</ele>
        <time>2020-07-04T15:09:45Z</time>
      </trkpt>
      <trkpt lat="51.227294204083" lon="4.446994162413">
        <ele>0</ele>
        <time>2020-07-04T15:10:00Z</time>
      </trkpt>
      <trkpt lat="51.22771606511" lon="4.44639259345">
        <ele>0</ele>
        <time>2020-07-04T15:10:15Z</time>
      </trkpt>
      <trkpt lat="51.227945896808" lon="4.446039547822">
        <ele>0</ele>
        <time>2020-07-04T15:10:23Z</time>
      </trkpt>
      <trkpt lat="51.228006162669" lon="4.445938965022">
        <ele>0</ele>
        <time>2020-07-04T15:10:25Z</time>
      </trkpt>
      <trkpt lat="51.228076738267" lon="4.445852715271">
        <ele>0</ele>
        <time>2020-07-04T15:10:27Z</time>
      </trkpt>
      <trkpt lat="51.228155444308" lon="4.44568097014">
        <ele>0</ele>
        <time>2020-07-04T15:10:30Z</time>
      </trkpt>
      <trkpt lat="51.228204562242" lon="4.445574436191">
        <ele>0</ele>
        <time>2020-07-04T15:10:32Z</time>
      </trkpt>
      <trkpt lat="51.228246220285" lon="4.445446947492">
        <ele>0</ele>
        <time>2020-07-04T15:10:34Z</time>
      </trkpt>
      <trkpt lat="51.228294332391" lon="4.44534234138">
        <ele>0</ele>
        <time>2020-07-04T15:10:36Z</time>
      </trkpt>
      <trkpt lat="51.228319813367" lon="4.445220552373">
        <ele>0</ele>
        <time>2020-07-04T15:10:38Z</time>
      </trkpt>
      <trkpt lat="51.228400111969" lon="4.445087615439">
        <ele>0</ele>
        <time>2020-07-04T15:10:41Z</time>
      </trkpt>
      <trkpt lat="51.22842433566" lon="4.444964401509">
        <ele>0</ele>
        <time>2020-07-04T15:10:43Z</time>
      </trkpt>
      <trkpt lat="51.228494324525" lon="4.444815790422">
        <ele>0</ele>
        <time>2020-07-04T15:10:46Z</time>
      </trkpt>
      <trkpt lat="51.228527265392" lon="4.444701293668">
        <ele>0</ele>
        <time>2020-07-04T15:10:48Z</time>
      </trkpt>
      <trkpt lat="51.228582921208" lon="4.444616720297">
        <ele>0</ele>
        <time>2020-07-04T15:10:50Z</time>
      </trkpt>
      <trkpt lat="51.228622316138" lon="4.444506246855">
        <ele>0</ele>
        <time>2020-07-04T15:10:52Z</time>
      </trkpt>
      <trkpt lat="51.228720719644" lon="4.444410860833">
        <ele>0</ele>
        <time>2020-07-04T15:10:55Z</time>
      </trkpt>
      <trkpt lat="51.228766652456" lon="4.444319162847">
        <ele>0</ele>
        <time>2020-07-04T15:10:57Z</time>
      </trkpt>
      <trkpt lat="51.228921633787" lon="4.444128306984">
        <ele>0</ele>
        <time>2020-07-04T15:11:03Z</time>
      </trkpt>
      <trkpt lat="51.22898676115" lon="4.444038620654">
        <ele>0</ele>
        <time>2020-07-04T15:11:06Z</time>
      </trkpt>
      <trkpt lat="51.22904627264" lon="4.444020012836">
        <ele>0</ele>
        <time>2020-07-04T15:11:08Z</time>
      </trkpt>
      <trkpt lat="51.229090780529" lon="4.443964524658">
        <ele>0</ele>
        <time>2020-07-04T15:11:10Z</time>
      </trkpt>
      <trkpt lat="51.229219861789" lon="4.443897553277">
        <ele>0</ele>
        <time>2020-07-04T15:11:15Z</time>
      </trkpt>
      <trkpt lat="51.229290856482" lon="4.443860672917">
        <ele>0</ele>
        <time>2020-07-04T15:11:18Z</time>
      </trkpt>
      <trkpt lat="51.229364365745" lon="4.44382689386">
        <ele>0</ele>
        <time>2020-07-04T15:11:21Z</time>
      </trkpt>
      <trkpt lat="51.229438461741" lon="4.443885315703">
        <ele>0</ele>
        <time>2020-07-04T15:11:24Z</time>
      </trkpt>
      <trkpt lat="51.229686733619" lon="4.444680087461">
        <ele>0</ele>
        <time>2020-07-04T15:11:40Z</time>
      </trkpt>
      <trkpt lat="51.229362689365" lon="4.445322979191">
        <ele>0</ele>
        <time>2020-07-04T15:12:06Z</time>
      </trkpt>
      <trkpt lat="51.228958514147" lon="4.445893702762">
        <ele>0</ele>
        <time>2020-07-04T15:12:23Z</time>
      </trkpt>
      <trkpt lat="51.228559787164" lon="4.446494182078">
        <ele>0</ele>
        <time>2020-07-04T15:12:40Z</time>
      </trkpt>
      <trkpt lat="51.228185702967" lon="4.447146545355">
        <ele>2</ele>
        <time>2020-07-04T15:13:00Z</time>
      </trkpt>
      <trkpt lat="51.227798794463" lon="4.447744761558">
        <ele>7.6</ele>
        <time>2020-07-04T15:13:20Z</time>
      </trkpt>
      <trkpt lat="51.227409036113" lon="4.448354963878">
        <ele>6</ele>
        <time>2020-07-04T15:13:40Z</time>
      </trkpt>
      <trkpt lat="51.227075855588" lon="4.449063402066">
        <ele>3.4</ele>
        <time>2020-07-04T15:14:00Z</time>
      </trkpt>
      <trkpt lat="51.226974853693" lon="4.449936544589">
        <ele>0</ele>
        <time>2020-07-04T15:14:16Z</time>
      </trkpt>
      <trkpt lat="51.22695163583" lon="4.450813878062">
        <ele>0</ele>
        <time>2020-07-04T15:14:32Z</time>
      </trkpt>
      <trkpt lat="51.226931016356" lon="4.451600687015">
        <ele>0</ele>
        <time>2020-07-04T15:14:53Z</time>
      </trkpt>
      <trkpt lat="51.226928250329" lon="4.451644608171">
        <ele>0</ele>
        <time>2020-07-04T15:14:56Z</time>
      </trkpt>
      <trkpt lat="51.226936213134" lon="4.451688361689">
        <ele>0</ele>
        <time>2020-07-04T15:14:58Z</time>
      </trkpt>
      <trkpt lat="51.22692565194" lon="4.452585811722">
        <ele>0</ele>
        <time>2020-07-04T15:15:19Z</time>
      </trkpt>
      <trkpt lat="51.226956916427" lon="4.453307158036">
        <ele>0</ele>
        <time>2020-07-04T15:15:34Z</time>
      </trkpt>
      <trkpt lat="51.227476175132" lon="4.452997782107">
        <ele>0.2</ele>
        <time>2020-07-04T15:15:54Z</time>
      </trkpt>
      <trkpt lat="51.228009263972" lon="4.452712378412">
        <ele>5.2</ele>
        <time>2020-07-04T15:16:13Z</time>
      </trkpt>
      <trkpt lat="51.228538078043" lon="4.452437787368">
        <ele>6.6</ele>
        <time>2020-07-04T15:16:30Z</time>
      </trkpt>
      <trkpt lat="51.229065048096" lon="4.452220109425">
        <ele>5.2</ele>
        <time>2020-07-04T15:16:46Z</time>
      </trkpt>
      <trkpt lat="51.229221538169" lon="4.452323374433">
        <ele>0</ele>
        <time>2020-07-04T15:16:52Z</time>
      </trkpt>
      <trkpt lat="51.229393115662" lon="4.453147734298">
        <ele>0</ele>
        <time>2020-07-04T15:17:08Z</time>
      </trkpt>
      <trkpt lat="51.229470648237" lon="4.454039065544">
        <ele>0</ele>
        <time>2020-07-04T15:17:25Z</time>
      </trkpt>
      <trkpt lat="51.229505181665" lon="4.454792682173">
        <ele>0</ele>
        <time>2020-07-04T15:17:42Z</time>
      </trkpt>
      <trkpt lat="51.229595370909" lon="4.454875327707">
        <ele>0</ele>
        <time>2020-07-04T15:17:48Z</time>
      </trkpt>
      <trkpt lat="51.229611380338" lon="4.454929307143">
        <ele>0</ele>
        <time>2020-07-04T15:17:53Z</time>
      </trkpt>
      <trkpt lat="51.230074396494" lon="4.455116055875">
        <ele>0</ele>
        <time>2020-07-04T15:18:20Z</time>
      </trkpt>
      <trkpt lat="51.230281597062" lon="4.454312986036">
        <ele>0</ele>
        <time>2020-07-04T15:18:46Z</time>
      </trkpt>
      <trkpt lat="51.230163412272" lon="4.453454930933">
        <ele>0</ele>
        <time>2020-07-04T15:19:04Z</time>
      </trkpt>
      <trkpt lat="51.230017818669" lon="4.452590254129">
        <ele>0</ele>
        <time>2020-07-04T15:19:21Z</time>
      </trkpt>
      <trkpt lat="51.22987356617" lon="4.451708310611">
        <ele>0</ele>
        <time>2020-07-04T15:19:39Z</time>
      </trkpt>
      <trkpt lat="51.229855042171" lon="4.451440005992">
        <ele>0</ele>
        <time>2020-07-04T15:19:45Z</time>
      </trkpt>
      <trkpt lat="51.22969670808" lon="4.450608437693">
        <ele>0.2</ele>
        <time>2020-07-04T15:20:01Z</time>
      </trkpt>
      <trkpt lat="51.22957014139" lon="4.449746694554">
        <ele>0</ele>
        <time>2020-07-04T15:20:15Z</time>
      </trkpt>
      <trkpt lat="51.229402335752" lon="4.448897021351">
        <ele>0</ele>
        <time>2020-07-04T15:20:30Z</time>
      </trkpt>
      <trkpt lat="51.228970248807" lon="4.448503072051">
        <ele>0</ele>
        <time>2020-07-04T15:20:48Z</time>
      </trkpt>
      <trkpt lat="51.228621645586" lon="4.449155519147">
        <ele>0</ele>
        <time>2020-07-04T15:21:02Z</time>
      </trkpt>
      <trkpt lat="51.228463311495" lon="4.449288204624">
        <ele>0</ele>
        <time>2020-07-04T15:21:18Z</time>
      </trkpt>
    </trkseg>
  </trk>
</gpx>